New Richmond, Wisconsin
Current Conditions -  °F | °C
As of 9:55 AM on Friday 28 Nov 2014 (Local Time) from KRNH Reporting Station
Overcast Overcast  
Wind Chill:   Ceiling: 2300
Heat Index: 15°   Visibility: 10mi
Dew Point:   Wind: 8mph
Humidity: 80%   Direction: 110°ESE
Pressure: 30"   Gusts: NA
Location:  45.12°N, 92.54°W
Report Text: KRNH 281555Z AUTO 11007KT 10SM OVC023 M10/M13 A3000 RMK AO2 T10971126
Loading
Personal Weather Stations






























Interactive Weather Map New forecast layout! Learn more

10-Day Weather Forecast

Advertisements
Track Severe Weather on mobile